createdAt,value
2017-10-18T00:02:24.344Z,31.27
2017-10-18T00:04:51.907Z,31.83
2017-10-18T00:07:19.442Z,26.53
2017-10-18T00:09:47.019Z,28.53
2017-10-18T00:12:14.545Z,29.40
2017-10-18T00:14:42.078Z,26.27
2017-10-18T00:17:09.644Z,28.90
2017-10-18T00:19:37.184Z,27.97
2017-10-18T00:22:04.763Z,27.27
2017-10-18T00:24:32.299Z,30.23
2017-10-18T00:26:59.884Z,29.70
2017-10-18T00:29:28.188Z,39.27
2017-10-18T00:31:55.719Z,27.87
2017-10-18T00:34:24.055Z,38.70
2017-10-18T00:36:51.594Z,34.67
2017-10-18T00:39:19.166Z,37.30
2017-10-18T00:41:46.732Z,32.30
2017-10-18T00:44:15.000Z,68.10
2017-10-18T00:46:42.567Z,61.37
2017-10-18T00:49:10.105Z,103.93
2017-10-18T00:51:37.643Z,46.50
2017-10-18T00:54:05.219Z,35.47
2017-10-18T00:56:32.772Z,40.37
2017-10-18T00:59:00.342Z,27.80
2017-10-18T01:01:27.885Z,25.67
2017-10-18T01:03:55.450Z,26.87
2017-10-18T01:06:22.986Z,23.77
2017-10-18T01:08:50.523Z,24.20
2017-10-18T01:11:18.848Z,23.83
2017-10-18T01:16:37.770Z,24.20
2017-10-18T01:19:06.107Z,36.83
2017-10-18T01:21:33.647Z,26.53
2017-10-18T01:24:01.202Z,29.30
2017-10-18T01:26:28.727Z,26.63
2017-10-18T01:28:57.021Z,25.40
2017-10-18T01:31:24.567Z,22.83
2017-10-18T01:33:52.903Z,25.37
2017-10-18T01:36:20.442Z,22.60
2017-10-18T01:38:48.211Z,30.57
2017-10-18T01:41:15.766Z,26.10
2017-10-18T01:43:43.300Z,21.87
2017-10-18T01:46:10.869Z,21.47
2017-10-18T01:48:38.420Z,23.97
2017-10-18T01:51:05.966Z,22.77
2017-10-18T01:53:36.891Z,22.57
2017-10-18T01:56:04.474Z,21.43
2017-10-18T01:58:32.009Z,24.20
2017-10-18T02:00:59.546Z,22.37
2017-10-18T02:03:27.871Z,25.23
2017-10-18T02:05:55.400Z,23.30
2017-10-18T02:08:22.950Z,26.57
2017-10-18T02:10:51.248Z,24.93
2017-10-18T02:13:18.803Z,18.30
2017-10-18T02:15:46.334Z,21.03
2017-10-18T02:18:14.654Z,21.67
2017-10-18T02:20:42.186Z,23.80
2017-10-18T02:23:09.761Z,21.13
2017-10-18T02:25:37.287Z,22.33
2017-10-18T02:28:05.581Z,24.13
2017-10-18T02:30:33.154Z,30.43
2017-10-18T02:33:00.694Z,28.20
2017-10-18T02:35:28.269Z,28.00
2017-10-18T02:37:55.798Z,33.67
2017-10-18T02:40:24.097Z,26.77
2017-10-18T02:42:51.641Z,30.50
2017-10-18T02:45:19.186Z,26.60
2017-10-18T02:47:47.084Z,24.83
2017-10-18T02:50:14.622Z,32.80
2017-10-18T02:52:42.146Z,33.23
2017-10-18T02:55:09.729Z,25.40
2017-10-18T02:57:37.262Z,27.70
2017-10-18T03:00:04.806Z,23.63
2017-10-18T03:02:32.369Z,23.63
2017-10-18T03:04:59.894Z,20.67
2017-10-18T03:07:27.452Z,29.70
2017-10-18T03:09:54.989Z,29.43
2017-10-18T03:12:22.562Z,28.47
2017-10-18T03:14:50.098Z,24.10
2017-10-18T03:17:17.669Z,26.13
2017-10-18T03:19:45.201Z,21.70
2017-10-18T03:22:13.510Z,22.97
2017-10-18T03:24:41.076Z,24.23
2017-10-18T03:27:08.604Z,30.73
2017-10-18T03:29:36.723Z,32.77
2017-10-18T03:32:04.266Z,26.80
2017-10-18T03:34:32.610Z,29.23
2017-10-18T03:37:00.139Z,27.50
2017-10-18T03:39:29.267Z,30.57
2017-10-18T03:41:56.835Z,23.80
2017-10-18T03:44:24.399Z,29.77
2017-10-18T03:46:51.937Z,27.83
2017-10-18T03:49:19.495Z,30.87
2017-10-18T03:51:47.058Z,29.87
2017-10-18T03:54:14.591Z,38.57
2017-10-18T03:56:42.922Z,34.90
2017-10-18T03:59:10.453Z,53.03
2017-10-18T04:01:38.029Z,35.37
2017-10-18T04:04:05.559Z,34.07
2017-10-18T04:06:33.086Z,28.93
2017-10-18T04:09:02.170Z,35.00
2017-10-18T04:11:29.705Z,31.13
2017-10-18T04:13:57.264Z,32.87
2017-10-18T04:16:24.798Z,28.83
2017-10-18T04:18:52.362Z,34.20
2017-10-18T04:21:19.912Z,33.60
2017-10-18T04:23:47.445Z,32.03
2017-10-18T04:26:15.764Z,30.83
2017-10-18T04:28:43.388Z,37.23
2017-10-18T04:31:10.959Z,28.73
2017-10-18T04:33:38.496Z,31.83
2017-10-18T04:36:06.022Z,33.73
2017-10-18T04:38:33.611Z,32.00
2017-10-18T04:41:01.137Z,32.20
2017-10-18T04:43:28.710Z,36.37
2017-10-18T04:45:57.003Z,35.47
2017-10-18T04:48:24.536Z,35.93
2017-10-18T04:50:52.234Z,28.67
2017-10-18T04:53:24.933Z,29.67
2017-10-18T04:55:52.503Z,30.07
2017-10-18T04:58:20.042Z,36.47
2017-10-18T05:00:47.562Z,25.20
2017-10-18T05:03:15.121Z,27.70
2017-10-18T05:05:43.426Z,30.03
2017-10-18T05:08:10.976Z,27.80
2017-10-18T05:10:38.574Z,35.93
2017-10-18T05:13:06.199Z,31.63
2017-10-18T05:15:33.723Z,35.00
2017-10-18T05:18:01.978Z,32.20
2017-10-18T05:20:30.332Z,28.33
2017-10-18T05:22:57.869Z,32.13
2017-10-18T05:25:25.427Z,34.13
2017-10-18T05:27:52.984Z,28.27
2017-10-18T05:30:20.622Z,29.70
2017-10-18T05:32:49.041Z,31.00
2017-10-18T05:35:16.582Z,32.27
2017-10-18T05:37:44.137Z,33.10
2017-10-18T05:40:11.663Z,29.60
2017-10-18T05:42:39.993Z,31.33
2017-10-18T05:45:07.563Z,28.87
2017-10-18T05:47:35.085Z,40.37
2017-10-18T05:50:02.605Z,33.43
2017-10-18T05:52:30.918Z,26.47
2017-10-18T05:54:58.458Z,38.67
2017-10-18T05:57:26.007Z,27.07
2017-10-18T05:59:54.301Z,27.63
2017-10-18T06:02:21.821Z,35.50
2017-10-18T06:04:49.373Z,31.23
2017-10-18T06:07:16.955Z,31.17
2017-10-18T06:09:44.535Z,29.93
2017-10-18T06:12:12.082Z,28.53
2017-10-18T06:14:39.679Z,27.87
2017-10-18T06:17:07.222Z,29.73
2017-10-18T06:19:34.800Z,29.80
2017-10-18T06:22:02.317Z,35.87
2017-10-18T06:24:29.844Z,35.83
2017-10-18T06:26:58.169Z,27.70
2017-10-18T06:29:25.744Z,30.60
2017-10-18T06:31:53.274Z,24.77
2017-10-18T06:34:20.797Z,27.73
2017-10-18T06:36:49.110Z,29.77
2017-10-18T06:39:16.634Z,32.10
2017-10-18T06:41:45.207Z,31.07
2017-10-18T06:44:12.727Z,27.63
2017-10-18T06:46:40.280Z,34.30
2017-10-18T06:49:07.837Z,31.03
2017-10-18T06:51:35.362Z,32.63
2017-10-18T06:54:02.921Z,32.63
2017-10-18T06:56:30.450Z,37.70
2017-10-18T06:58:58.007Z,35.17
2017-10-18T07:01:25.533Z,31.80
2017-10-18T07:03:53.096Z,31.40
2017-10-18T07:06:20.642Z,30.80
2017-10-18T07:08:48.164Z,42.20
2017-10-18T07:11:15.735Z,36.80
2017-10-18T07:13:43.293Z,26.70
2017-10-18T07:16:10.816Z,35.77
2017-10-18T07:18:39.148Z,29.87
2017-10-18T07:21:06.684Z,33.37
2017-10-18T07:23:34.239Z,37.37
2017-10-18T07:26:01.765Z,29.00
2017-10-18T07:28:30.096Z,31.37
2017-10-18T07:30:57.656Z,30.97
2017-10-18T07:33:25.182Z,37.40
2017-10-18T07:35:52.746Z,35.40
2017-10-18T07:38:20.266Z,37.67
2017-10-18T07:40:47.834Z,34.20
2017-10-18T07:43:15.427Z,34.93
2017-10-18T07:45:43.746Z,28.83
2017-10-18T07:48:12.567Z,33.23
2017-10-18T07:50:40.142Z,36.03
2017-10-18T07:53:12.370Z,30.70
2017-10-18T07:55:40.723Z,33.20
2017-10-18T07:58:08.334Z,29.67
2017-10-18T08:00:35.928Z,32.60
2017-10-18T08:03:03.563Z,31.07
2017-10-18T08:05:31.774Z,31.07
2017-10-18T08:07:59.359Z,30.43
2017-10-18T08:10:28.538Z,29.70
2017-10-18T08:12:56.593Z,33.60
2017-10-18T08:15:29.639Z,29.43
2017-10-18T08:17:57.317Z,25.13
2017-10-18T08:20:30.176Z,27.40
2017-10-18T08:23:04.308Z,27.80
2017-10-18T08:25:33.427Z,31.10
2017-10-18T08:28:01.793Z,30.70
2017-10-18T08:30:30.760Z,32.60
2017-10-18T08:33:00.189Z,33.03
2017-10-18T08:35:28.717Z,29.03
2017-10-18T08:37:57.323Z,29.20
2017-10-18T08:40:24.975Z,32.50
2017-10-18T08:42:54.626Z,27.87
2017-10-18T08:45:30.243Z,25.20
2017-10-18T08:47:58.171Z,26.73
2017-10-18T08:50:39.636Z,31.20
2017-10-18T08:53:22.097Z,17.33
2017-10-18T08:56:01.084Z,17.43
2017-10-18T08:58:30.990Z,13.73
2017-10-18T09:01:02.944Z,16.10
2017-10-18T09:03:30.542Z,14.13
2017-10-18T09:05:58.150Z,11.90
2017-10-18T09:08:26.046Z,12.07
2017-10-18T09:10:53.692Z,16.47
2017-10-18T09:13:27.293Z,12.93
2017-10-18T09:15:55.747Z,11.97
2017-10-18T09:18:26.571Z,11.80
2017-10-18T09:20:54.786Z,12.17
2017-10-18T09:23:22.424Z,11.03
2017-10-18T09:25:51.171Z,10.70
2017-10-18T09:28:23.883Z,12.53
2017-10-18T09:30:51.777Z,10.90
2017-10-18T09:33:19.411Z,10.70
2017-10-18T09:38:46.594Z,8.20
2017-10-18T09:41:23.499Z,14.20
2017-10-18T09:43:57.907Z,14.00
2017-10-18T09:46:26.378Z,11.20
2017-10-18T09:48:53.938Z,15.83
2017-10-18T09:51:26.769Z,11.47
2017-10-18T09:54:00.001Z,12.07
2017-10-18T09:56:34.937Z,11.57
2017-10-18T09:59:08.630Z,9.37
2017-10-18T10:01:56.233Z,12.63
2017-10-18T10:04:31.574Z,13.20
2017-10-18T10:06:59.233Z,9.03
2017-10-18T10:09:26.913Z,16.10
2017-10-18T10:12:16.953Z,12.43
2017-10-18T10:15:00.375Z,11.87
2017-10-18T10:17:28.087Z,12.33
2017-10-18T10:20:12.529Z,12.27
2017-10-18T10:23:03.425Z,10.87
2017-10-18T10:25:32.596Z,13.10
2017-10-18T10:28:00.925Z,16.63
2017-10-18T10:30:43.661Z,16.53
2017-10-18T10:33:11.255Z,10.63
2017-10-18T10:35:40.597Z,13.07
2017-10-18T10:38:20.484Z,10.50
2017-10-18T10:40:48.164Z,11.90
2017-10-18T10:43:20.447Z,12.30
2017-10-18T10:45:48.161Z,11.60
2017-10-18T10:48:19.504Z,13.13
2017-10-18T10:50:48.775Z,11.53
2017-10-18T10:53:16.385Z,12.03
2017-10-18T10:55:46.153Z,12.50
2017-10-18T10:58:14.694Z,15.37
2017-10-18T11:00:42.269Z,15.37
2017-10-18T11:03:11.864Z,10.73
2017-10-18T11:05:39.579Z,10.30
2017-10-18T11:08:07.210Z,11.60
2017-10-18T11:10:34.818Z,9.00
2017-10-18T11:13:02.436Z,16.50
2017-10-18T11:15:30.654Z,14.63
2017-10-18T11:17:58.475Z,9.13
2017-10-18T11:20:26.818Z,11.13
2017-10-18T11:22:54.408Z,18.03
2017-10-18T11:25:21.948Z,10.87
2017-10-18T11:27:49.503Z,10.60
2017-10-18T11:30:17.026Z,8.37
2017-10-18T11:32:57.329Z,8.37
2017-10-18T11:35:24.917Z,10.83
2017-10-18T11:37:56.838Z,15.70
2017-10-18T11:40:24.471Z,11.27
2017-10-18T11:42:52.016Z,11.27
2017-10-18T11:45:19.602Z,10.10
2017-10-18T11:47:48.464Z,8.80
2017-10-18T11:50:16.146Z,10.77
2017-10-18T11:52:43.834Z,8.10
2017-10-18T11:55:11.388Z,15.27
2017-10-18T11:57:38.908Z,9.67
2017-10-18T12:00:06.475Z,8.40
2017-10-18T12:02:34.094Z,7.83
2017-10-18T12:05:01.657Z,9.43
2017-10-18T12:07:30.060Z,12.63
2017-10-18T12:10:00.464Z,10.33
2017-10-18T12:12:34.334Z,12.27
2017-10-18T12:15:02.844Z,7.93
2017-10-18T12:17:32.069Z,9.37
2017-10-18T12:20:01.815Z,14.73
2017-10-18T12:22:30.246Z,9.47
2017-10-18T12:24:57.863Z,10.30
2017-10-18T12:27:25.535Z,10.20
2017-10-18T12:29:53.062Z,8.13
2017-10-18T12:32:21.439Z,13.23
2017-10-18T12:35:06.815Z,9.27
2017-10-18T12:37:34.422Z,17.13
2017-10-18T12:40:02.064Z,11.23
2017-10-18T12:43:00.996Z,10.33
2017-10-18T12:45:29.949Z,9.83
2017-10-18T12:47:59.213Z,8.23
2017-10-18T12:50:27.104Z,11.37
2017-10-18T12:52:55.467Z,14.00
2017-10-18T12:55:24.187Z,9.27
2017-10-18T12:57:52.780Z,11.40
2017-10-18T13:00:20.351Z,13.40
2017-10-18T13:02:47.906Z,11.13
2017-10-18T13:05:15.491Z,10.83
2017-10-18T13:07:43.031Z,16.13
2017-10-18T13:10:10.623Z,11.87
2017-10-18T13:12:38.807Z,12.03
2017-10-18T13:15:06.402Z,12.27
2017-10-18T13:17:33.900Z,9.97
2017-10-18T13:20:01.470Z,15.20
2017-10-18T13:22:29.021Z,13.60
2017-10-18T13:24:56.543Z,9.83
2017-10-18T13:27:24.180Z,9.60
2017-10-18T13:29:52.501Z,13.03
2017-10-18T13:32:20.013Z,9.77
2017-10-18T13:34:48.338Z,8.87
2017-10-18T13:37:15.861Z,10.57
2017-10-18T13:39:43.393Z,12.50
2017-10-18T13:42:10.904Z,9.97
2017-10-18T13:44:38.489Z,12.20
2017-10-18T13:47:06.010Z,9.93
2017-10-18T13:49:34.601Z,10.33
2017-10-18T13:52:02.944Z,10.37
2017-10-18T13:54:34.447Z,12.10
2017-10-18T13:57:02.058Z,10.00
2017-10-18T13:59:29.830Z,13.90
2017-10-18T14:02:00.540Z,11.60
2017-10-18T14:04:28.158Z,11.30
2017-10-18T14:06:56.474Z,8.87
2017-10-18T14:09:24.040Z,11.70
2017-10-18T14:11:51.579Z,11.20
2017-10-18T14:14:19.222Z,14.60
2017-10-18T14:16:47.016Z,11.73
2017-10-18T14:19:14.755Z,13.60
2017-10-18T14:21:42.326Z,9.73
2017-10-18T14:24:09.866Z,11.60
2017-10-18T14:26:37.448Z,11.13
2017-10-18T14:29:04.966Z,13.73
2017-10-18T14:31:32.515Z,11.93
2017-10-18T14:34:00.070Z,17.40
2017-10-18T14:36:27.665Z,16.70
2017-10-18T14:38:55.273Z,19.77
2017-10-18T14:41:22.815Z,12.27
2017-10-18T14:43:50.365Z,12.33
2017-10-18T14:46:18.752Z,13.57
2017-10-18T14:48:47.074Z,11.90
2017-10-18T14:51:14.590Z,10.13
2017-10-18T14:53:42.154Z,9.30
2017-10-18T14:56:09.668Z,9.43
2017-10-18T14:58:37.962Z,16.30
2017-10-18T15:01:06.274Z,13.30
2017-10-18T15:03:34.165Z,12.63
2017-10-18T15:06:01.743Z,13.13
2017-10-18T15:08:29.300Z,10.10
2017-10-18T15:10:56.833Z,12.80
2017-10-18T15:13:25.169Z,10.50
2017-10-18T15:15:52.699Z,17.50
2017-10-18T15:18:20.987Z,12.53
2017-10-18T15:20:49.310Z,13.53
2017-10-18T15:23:16.866Z,18.70
2017-10-18T15:25:44.392Z,17.13
2017-10-18T15:28:11.946Z,11.83
2017-10-18T15:30:39.466Z,12.50
2017-10-18T15:33:07.779Z,11.30
2017-10-18T15:35:35.303Z,12.70
2017-10-18T15:38:02.864Z,16.77
2017-10-18T15:40:30.406Z,13.87
2017-10-18T15:42:57.952Z,12.90
2017-10-18T15:45:26.237Z,19.57
2017-10-18T15:47:54.649Z,12.13
2017-10-18T15:50:22.173Z,16.87
2017-10-18T15:52:49.706Z,15.83
2017-10-18T15:55:17.261Z,14.17
2017-10-18T15:57:44.778Z,15.00
2017-10-18T16:00:12.338Z,16.10
2017-10-18T16:02:39.911Z,15.53
2017-10-18T16:05:07.439Z,14.53
2017-10-18T16:07:34.998Z,15.40
2017-10-18T16:10:02.706Z,19.87
2017-10-18T16:12:30.273Z,21.10
2017-10-18T16:14:57.801Z,17.90
2017-10-18T16:17:25.442Z,17.30
2017-10-18T16:19:52.993Z,16.43
2017-10-18T16:22:20.562Z,15.83
2017-10-18T16:24:48.086Z,19.23
2017-10-18T16:27:15.638Z,13.43
2017-10-18T16:29:43.974Z,22.43
2017-10-18T16:32:11.521Z,16.83
2017-10-18T16:34:39.073Z,17.90
2017-10-18T16:37:06.612Z,15.80
2017-10-18T16:39:34.170Z,13.20
2017-10-18T16:42:02.473Z,15.70
2017-10-18T16:44:30.033Z,19.40
2017-10-18T16:46:57.577Z,17.23
2017-10-18T16:49:25.174Z,16.07
2017-10-18T16:51:52.710Z,17.83
2017-10-18T16:54:20.241Z,16.40
2017-10-18T16:56:47.861Z,21.33
2017-10-18T16:59:16.207Z,15.53
2017-10-18T17:01:43.769Z,19.70
2017-10-18T17:04:12.063Z,15.90
2017-10-18T17:06:40.409Z,21.50
2017-10-18T17:09:07.962Z,23.30
2017-10-18T17:11:36.250Z,16.77
2017-10-18T17:14:04.592Z,15.83
2017-10-18T17:16:32.895Z,19.00
2017-10-18T17:19:00.418Z,17.67
2017-10-18T17:21:28.009Z,28.37
2017-10-18T17:23:56.633Z,17.27
2017-10-18T17:26:24.153Z,19.50
2017-10-18T17:28:51.694Z,17.20
2017-10-18T17:31:19.263Z,21.23
2017-10-18T17:33:46.793Z,19.90
2017-10-18T17:36:14.346Z,17.57
2017-10-18T17:38:41.903Z,22.43
2017-10-18T17:41:10.205Z,21.97
2017-10-18T17:43:37.769Z,21.23
2017-10-18T17:46:06.058Z,24.70
2017-10-18T17:48:34.341Z,24.90
2017-10-18T17:51:01.900Z,22.10
2017-10-18T17:53:29.433Z,19.53
2017-10-18T17:55:57.737Z,22.77
2017-10-18T17:58:26.070Z,17.60
2017-10-18T18:00:53.598Z,23.20
2017-10-18T18:03:21.890Z,20.13
2017-10-18T18:05:50.215Z,23.87
2017-10-18T18:08:17.750Z,21.13
2017-10-18T18:10:46.069Z,20.50
2017-10-18T18:13:13.594Z,23.47
2017-10-18T18:15:41.154Z,30.10
2017-10-18T18:18:08.727Z,25.03
2017-10-18T18:20:36.249Z,20.53
2017-10-18T18:23:03.786Z,27.50
2017-10-18T18:25:31.368Z,27.40
2017-10-18T18:27:58.986Z,21.90
2017-10-18T18:30:26.563Z,27.07
2017-10-18T18:32:54.136Z,20.63
2017-10-18T18:35:21.681Z,21.17
2017-10-18T18:37:50.018Z,16.73
2017-10-18T18:40:17.550Z,21.57
2017-10-18T18:42:45.084Z,19.60
2017-10-18T18:45:12.651Z,35.97
2017-10-18T18:47:40.174Z,23.60
2017-10-18T18:50:07.746Z,18.93
2017-10-18T18:52:35.281Z,19.57
2017-10-18T18:55:02.806Z,19.63
2017-10-18T18:57:30.385Z,24.40
2017-10-18T18:59:57.927Z,23.47
2017-10-18T19:02:25.454Z,18.90
2017-10-18T19:04:53.781Z,23.97
2017-10-18T19:07:22.097Z,20.30
2017-10-18T19:09:50.428Z,20.30
2017-10-18T19:12:17.949Z,26.83
2017-10-18T19:14:45.498Z,23.90
2017-10-18T19:17:13.099Z,20.27
2017-10-18T19:19:40.641Z,21.40
2017-10-18T19:22:08.216Z,21.13
2017-10-18T19:24:36.329Z,22.13
2017-10-18T19:27:03.899Z,30.40
2017-10-18T19:29:31.436Z,23.53
2017-10-18T19:31:58.966Z,23.30
2017-10-18T19:34:26.571Z,19.20
2017-10-18T19:36:54.101Z,23.90
2017-10-18T19:39:22.403Z,19.83
2017-10-18T19:41:49.962Z,20.47
2017-10-18T19:44:18.256Z,28.40
2017-10-18T19:46:45.815Z,22.07
2017-10-18T19:49:14.104Z,25.70
2017-10-18T19:51:42.437Z,22.60
2017-10-18T19:54:09.958Z,19.13
2017-10-18T19:56:37.519Z,21.93
2017-10-18T19:59:05.047Z,19.97
2017-10-18T20:01:32.615Z,19.40
2017-10-18T20:04:00.141Z,18.70
2017-10-18T20:06:27.728Z,19.47
2017-10-18T20:08:55.297Z,21.10
2017-10-18T20:11:22.825Z,23.10
2017-10-18T20:13:50.390Z,22.10
2017-10-18T20:16:17.943Z,21.13
2017-10-18T20:18:45.475Z,23.13
2017-10-18T20:21:13.035Z,20.23
2017-10-18T20:23:40.574Z,22.87
2017-10-18T20:26:08.137Z,20.60
2017-10-18T20:28:35.666Z,19.30
2017-10-18T20:31:03.229Z,22.10
2017-10-18T20:33:30.764Z,24.63
2017-10-18T20:35:58.305Z,25.23
2017-10-18T20:38:26.646Z,20.03
2017-10-18T20:40:54.205Z,20.70
2017-10-18T20:43:21.746Z,19.13
2017-10-18T20:45:49.305Z,22.57
2017-10-18T20:48:17.611Z,20.63
2017-10-18T20:50:45.173Z,20.83
2017-10-18T20:53:12.700Z,25.50
2017-10-18T20:55:40.221Z,20.97
2017-10-18T20:58:08.539Z,29.77
2017-10-18T21:00:36.085Z,25.10
2017-10-18T21:03:03.649Z,22.13
2017-10-18T21:05:31.943Z,24.43
2017-10-18T21:08:00.257Z,23.03
2017-10-18T21:10:27.793Z,25.57
2017-10-18T21:12:56.122Z,23.27
2017-10-18T21:15:23.648Z,22.13
2017-10-18T21:17:51.982Z,24.07
2017-10-18T21:20:19.514Z,25.27
2017-10-18T21:22:47.841Z,23.97
2017-10-18T21:25:15.365Z,21.80
2017-10-18T21:27:42.893Z,24.13
2017-10-18T21:30:10.442Z,23.07
2017-10-18T21:32:37.970Z,31.53
2017-10-18T21:35:05.557Z,23.70
2017-10-18T21:37:33.884Z,27.07
2017-10-18T21:40:01.434Z,24.73
2017-10-18T21:42:28.989Z,24.10
2017-10-18T21:44:56.504Z,35.10
2017-10-18T21:50:15.102Z,23.40
2017-10-18T21:52:42.627Z,30.17
2017-10-18T21:55:10.197Z,25.00
2017-10-18T21:57:37.739Z,23.13
2017-10-18T22:00:05.270Z,26.87
2017-10-18T22:02:32.830Z,21.50
2017-10-18T22:05:01.130Z,23.57
2017-10-18T22:07:28.781Z,19.07
2017-10-18T22:09:57.065Z,27.53
2017-10-18T22:12:24.589Z,24.60
2017-10-18T22:14:52.159Z,23.70
2017-10-18T22:17:19.686Z,26.30
2017-10-18T22:19:47.977Z,23.60
2017-10-18T22:22:16.316Z,23.03
2017-10-18T22:24:43.842Z,25.40
2017-10-18T22:27:12.129Z,23.37
2017-10-18T22:29:40.466Z,24.70
2017-10-18T22:32:07.995Z,28.13
2017-10-18T22:34:36.291Z,22.87
2017-10-18T22:37:04.614Z,21.97
2017-10-18T22:39:32.149Z,25.47
2017-10-18T22:42:00.477Z,24.20
2017-10-18T22:44:28.005Z,21.60
2017-10-18T22:46:56.321Z,21.17
2017-10-18T22:49:23.869Z,22.73
2017-10-18T22:51:52.157Z,26.17
2017-10-18T22:54:20.486Z,26.97
2017-10-18T22:56:48.018Z,26.87
2017-10-18T22:59:16.308Z,23.23
2017-10-18T23:01:44.621Z,29.40
2017-10-18T23:07:03.480Z,24.13
2017-10-18T23:09:31.010Z,28.80
2017-10-18T23:11:58.537Z,25.30
2017-10-18T23:14:26.853Z,24.67
2017-10-18T23:16:54.377Z,24.67
2017-10-18T23:19:21.945Z,21.10
2017-10-18T23:21:49.505Z,26.27
2017-10-18T23:24:17.073Z,23.27
2017-10-18T23:26:44.603Z,23.93
2017-10-18T23:29:12.933Z,29.23
2017-10-18T23:31:40.457Z,24.80
2017-10-18T23:34:08.756Z,23.93
2017-10-18T23:36:36.318Z,27.63
2017-10-18T23:39:04.634Z,24.30
2017-10-18T23:41:32.189Z,25.10
2017-10-18T23:44:00.477Z,27.40
2017-10-18T23:46:28.793Z,25.77
2017-10-18T23:48:56.310Z,26.43
2017-10-18T23:51:23.877Z,28.13
2017-10-18T23:53:51.410Z,26.83
2017-10-18T23:56:18.933Z,27.23
2017-10-18T23:58:46.493Z,22.83
